Terminal Aerodrome Forecast
Issued by NWS

Home | Current Version | Previous Version | Text Only | Print | Product List | Glossary On
Versions: 1 2 3 4 5 6 7 8 9 10 11 12 13 14 15 16 17 18 19 20 21 22 23 24 25 26
000
FTUS46 KEKA 211121
TAFCEC
TAF
KCEC 211121Z 2112/2212 18020G28KT 6SM SHRA BR SCT015 OVC025
      TEMPO 2113/2116 4SM -RA BR
     FM220300 16020G28KT P6SM VCSH SCT025 BKN050 OVC100
      WS020/14030KT
     FM220600 18030G48KT 6SM -RA BR SCT015 OVC025 WS020/14050KT
     FM221100 19025G38KT 6SM -RA BR SCT015 OVC025=

USA.gov is the U.S. government's official web portal to all federal, state and local government web resources and services.